sensor_id;sensor_type;location;lat;lon;timestamp;pressure;altitude;pressure_sealevel;temperature;humidity
42335;BME280;27986;42.700;24.178;2023-01-29T00:02:12;93782.91;;;-0.80;100.00
42335;BME280;27986;42.700;24.178;2023-01-29T00:04:37;93771.66;;;-0.76;100.00
42335;BME280;27986;42.700;24.178;2023-01-29T00:07:03;93764.34;;;-0.52;100.00
42335;BME280;27986;42.700;24.178;2023-01-29T00:09:28;93706.44;;;-0.87;100.00
42335;BME280;27986;42.700;24.178;2023-01-29T00:11:55;93727.38;;;-0.76;100.00
42335;BME280;27986;42.700;24.178;2023-01-29T00:14:21;93765.44;;;-0.59;100.00
42335;BME280;27986;42.700;24.178;2023-01-29T00:16:46;93758.72;;;-0.89;100.00
42335;BME280;27986;42.700;24.178;2023-01-29T00:19:12;93787.22;;;-0.70;100.00
42335;BME280;27986;42.700;24.178;2023-01-29T00:21:37;93755.34;;;-1.24;100.00
42335;BME280;27986;42.700;24.178;2023-01-29T00:24:03;93786.88;;;-0.81;100.00
42335;BME280;27986;42.700;24.178;2023-01-29T00:26:28;93800.31;;;-0.70;100.00
42335;BME280;27986;42.700;24.178;2023-01-29T00:28:55;93712.34;;;-1.56;100.00
42335;BME280;27986;42.700;24.178;2023-01-29T00:31:26;93837.44;;;-0.90;100.00
42335;BME280;27986;42.700;24.178;2023-01-29T00:33:52;93772.19;;;-1.09;100.00
42335;BME280;27986;42.700;24.178;2023-01-29T00:36:19;93820.22;;;-0.85;100.00
42335;BME280;27986;42.700;24.178;2023-01-29T00:38:44;93780.16;;;-1.11;100.00
42335;BME280;27986;42.700;24.178;2023-01-29T00:41:19;93818.09;;;-0.80;100.00
42335;BME280;27986;42.700;24.178;2023-01-29T00:44:05;93781.06;;;-1.14;100.00
42335;BME280;27986;42.700;24.178;2023-01-29T00:46:49;93804.34;;;-0.93;100.00
42335;BME280;27986;42.700;24.178;2023-01-29T00:49:15;93756.53;;;-1.34;100.00
42335;BME280;27986;42.700;24.178;2023-01-29T00:51:40;93822.88;;;-0.81;100.00
42335;BME280;27986;42.700;24.178;2023-01-29T00:54:06;93735.72;;;-1.17;100.00
42335;BME280;27986;42.700;24.178;2023-01-29T00:56:34;93826.41;;;-0.40;100.00
42335;BME280;27986;42.700;24.178;2023-01-29T00:59:00;93773.59;;;-0.55;100.00
42335;BME280;27986;42.700;24.178;2023-01-29T01:01:25;93742.81;;;-1.06;100.00
42335;BME280;27986;42.700;24.178;2023-01-29T01:04:10;93777.97;;;-0.76;100.00
42335;BME280;27986;42.700;24.178;2023-01-29T01:06:38;93795.81;;;-0.18;100.00
42335;BME280;27986;42.700;24.178;2023-01-29T01:09:04;93798.53;;;-0.37;100.00
42335;BME280;27986;42.700;24.178;2023-01-29T01:11:49;93767.69;;;-0.75;100.00
42335;BME280;27986;42.700;24.178;2023-01-29T01:14:17;93791.28;;;-0.93;100.00
42335;BME280;27986;42.700;24.178;2023-01-29T01:16:46;93818.97;;;-0.93;100.00
42335;BME280;27986;42.700;24.178;2023-01-29T01:19:13;93769.97;;;-1.23;100.00
42335;BME280;27986;42.700;24.178;2023-01-29T01:21:39;93784.53;;;-1.01;100.00
42335;BME280;27986;42.700;24.178;2023-01-29T01:24:04;93812.13;;;-0.79;100.00
42335;BME280;27986;42.700;24.178;2023-01-29T01:26:33;93811.88;;;-0.94;100.00
42335;BME280;27986;42.700;24.178;2023-01-29T01:28:59;93774.00;;;-1.15;100.00
42335;BME280;27986;42.700;24.178;2023-01-29T01:31:24;93760.78;;;-1.11;100.00
42335;BME280;27986;42.700;24.178;2023-01-29T01:33:50;93778.25;;;-1.23;100.00
42335;BME280;27986;42.700;24.178;2023-01-29T01:36:16;93815.44;;;-0.93;100.00
42335;BME280;27986;42.700;24.178;2023-01-29T01:38:42;93721.41;;;-1.55;100.00
42335;BME280;27986;42.700;24.178;2023-01-29T01:41:16;93803.53;;;-1.03;100.00
42335;BME280;27986;42.700;24.178;2023-01-29T01:43:59;93791.34;;;-1.15;100.00
42335;BME280;27986;42.700;24.178;2023-01-29T01:46:28;93805.22;;;-1.05;100.00
42335;BME280;27986;42.700;24.178;2023-01-29T01:48:58;93737.72;;;-1.48;100.00
42335;BME280;27986;42.700;24.178;2023-01-29T01:51:25;93803.44;;;-0.99;100.00
42335;BME280;27986;42.700;24.178;2023-01-29T01:54:10;93797.34;;;-1.16;100.00
42335;BME280;27986;42.700;24.178;2023-01-29T01:56:42;93766.19;;;-1.38;100.00
42335;BME280;27986;42.700;24.178;2023-01-29T01:59:10;93805.47;;;-1.22;100.00
42335;BME280;27986;42.700;24.178;2023-01-29T02:01:36;93807.75;;;-1.20;100.00
42335;BME280;27986;42.700;24.178;2023-01-29T02:04:09;93683.38;;;-1.95;100.00
42335;BME280;27986;42.700;24.178;2023-01-29T02:06:54;93809.91;;;-1.24;100.00
42335;BME280;27986;42.700;24.178;2023-01-29T02:09:51;93733.22;;;-1.77;100.00
42335;BME280;27986;42.700;24.178;2023-01-29T02:12:18;93741.00;;;-1.62;100.00
42335;BME280;27986;42.700;24.178;2023-01-29T02:14:45;93710.50;;;-1.81;100.00
42335;BME280;27986;42.700;24.178;2023-01-29T02:17:15;93764.41;;;-1.54;100.00
42335;BME280;27986;42.700;24.178;2023-01-29T02:28:20;93757.56;;;-1.40;100.00
42335;BME280;27986;42.700;24.178;2023-01-29T02:36:45;93797.84;;;-1.08;100.00
42335;BME280;27986;42.700;24.178;2023-01-29T02:39:35;93792.41;;;-1.21;100.00
42335;BME280;27986;42.700;24.178;2023-01-29T02:42:23;93784.56;;;-1.23;100.00
42335;BME280;27986;42.700;24.178;2023-01-29T02:45:12;93780.34;;;-1.05;100.00
42335;BME280;27986;42.700;24.178;2023-01-29T02:47:59;93766.97;;;-1.07;100.00
42335;BME280;27986;42.700;24.178;2023-01-29T02:50:36;93795.13;;;-0.99;100.00
42335;BME280;27986;42.700;24.178;2023-01-29T02:55:35;93796.13;;;-1.15;100.00
42335;BME280;27986;42.700;24.178;2023-01-29T02:58:17;93769.25;;;-1.36;100.00
42335;BME280;27986;42.700;24.178;2023-01-29T03:00:47;93770.03;;;-1.36;100.00
42335;BME280;27986;42.700;24.178;2023-01-29T03:03:19;93813.44;;;-0.93;100.00
42335;BME280;27986;42.700;24.178;2023-01-29T03:08:27;93812.25;;;-0.82;100.00
42335;BME280;27986;42.700;24.178;2023-01-29T03:11:03;93802.69;;;-0.91;100.00
42335;BME280;27986;42.700;24.178;2023-01-29T03:18:49;93771.53;;;-1.44;100.00
42335;BME280;27986;42.700;24.178;2023-01-29T03:21:21;93719.72;;;-1.84;100.00
42335;BME280;27986;42.700;24.178;2023-01-29T03:24:08;93797.63;;;-1.23;100.00
42335;BME280;27986;42.700;24.178;2023-01-29T03:26:53;93786.81;;;-1.30;100.00
42335;BME280;27986;42.700;24.178;2023-01-29T03:29:39;93828.59;;;-1.06;100.00
42335;BME280;27986;42.700;24.178;2023-01-29T03:32:26;93792.00;;;-1.42;100.00
42335;BME280;27986;42.700;24.178;2023-01-29T03:34:57;93801.09;;;-1.32;100.00
42335;BME280;27986;42.700;24.178;2023-01-29T03:37:30;93801.88;;;-1.31;100.00
42335;BME280;27986;42.700;24.178;2023-01-29T03:40:03;93797.66;;;-1.14;100.00
42335;BME280;27986;42.700;24.178;2023-01-29T03:42:55;93843.59;;;-0.86;100.00
42335;BME280;27986;42.700;24.178;2023-01-29T03:45:50;93792.03;;;-1.01;100.00
42335;BME280;27986;42.700;24.178;2023-01-29T03:48:40;93791.22;;;-0.71;100.00
42335;BME280;27986;42.700;24.178;2023-01-29T03:54:17;93814.88;;;-0.39;100.00
42335;BME280;27986;42.700;24.178;2023-01-29T03:57:12;93850.44;;;-0.28;100.00
42335;BME280;27986;42.700;24.178;2023-01-29T03:59:52;93794.47;;;-0.63;100.00
42335;BME280;27986;42.700;24.178;2023-01-29T04:02:25;93793.91;;;-0.49;100.00
42335;BME280;27986;42.700;24.178;2023-01-29T04:04:58;93823.63;;;-0.49;100.00
42335;BME280;27986;42.700;24.178;2023-01-29T04:07:27;93782.09;;;-0.90;100.00
42335;BME280;27986;42.700;24.178;2023-01-29T04:10:05;93836.22;;;-0.48;100.00
42335;BME280;27986;42.700;24.178;2023-01-29T04:12:42;93750.47;;;-0.61;100.00
42335;BME280;27986;42.700;24.178;2023-01-29T04:15:12;93841.09;;;0.06;98.01
42335;BME280;27986;42.700;24.178;2023-01-29T04:17:42;93773.91;;;-0.44;100.00
42335;BME280;27986;42.700;24.178;2023-01-29T04:20:09;93805.59;;;-0.45;100.00
42335;BME280;27986;42.700;24.178;2023-01-29T04:22:37;93782.78;;;-0.67;100.00
42335;BME280;27986;42.700;24.178;2023-01-29T04:25:14;93819.16;;;-0.47;100.00
42335;BME280;27986;42.700;24.178;2023-01-29T04:30:30;93849.53;;;-0.25;100.00
42335;BME280;27986;42.700;24.178;2023-01-29T04:41:29;93868.97;;;-0.56;100.00
42335;BME280;27986;42.700;24.178;2023-01-29T04:44:15;93874.47;;;-0.65;100.00
42335;BME280;27986;42.700;24.178;2023-01-29T04:47:00;93843.53;;;-0.73;100.00
42335;BME280;27986;42.700;24.178;2023-01-29T04:49:44;93876.16;;;-0.18;100.00
42335;BME280;27986;42.700;24.178;2023-01-29T04:52:19;93842.50;;;-0.57;100.00
42335;BME280;27986;42.700;24.178;2023-01-29T04:57:27;93852.19;;;-0.52;100.00
42335;BME280;27986;42.700;24.178;2023-01-29T05:00:08;93870.22;;;-0.48;100.00
42335;BME280;27986;42.700;24.178;2023-01-29T05:02:38;93850.66;;;-0.53;100.00
42335;BME280;27986;42.700;24.178;2023-01-29T05:05:04;93883.56;;;-0.15;100.00
42335;BME280;27986;42.700;24.178;2023-01-29T05:07:34;93874.63;;;-0.19;100.00
42335;BME280;27986;42.700;24.178;2023-01-29T05:10:04;93874.72;;;-0.41;100.00
42335;BME280;27986;42.700;24.178;2023-01-29T05:12:31;93830.91;;;-0.74;100.00
42335;BME280;27986;42.700;24.178;2023-01-29T05:15:00;93880.84;;;-0.46;100.00
42335;BME280;27986;42.700;24.178;2023-01-29T05:17:26;93817.69;;;-0.70;100.00
42335;BME280;27986;42.700;24.178;2023-01-29T05:19:54;93836.75;;;-0.32;99.08
42335;BME280;27986;42.700;24.178;2023-01-29T05:22:20;93848.03;;;-0.08;96.20
42335;BME280;27986;42.700;24.178;2023-01-29T05:24:47;93876.50;;;-0.07;95.61
42335;BME280;27986;42.700;24.178;2023-01-29T05:27:18;93880.41;;;0.14;90.96
42335;BME280;27986;42.700;24.178;2023-01-29T05:30:03;93854.66;;;0.04;94.13
42335;BME280;27986;42.700;24.178;2023-01-29T05:32:28;93882.66;;;-0.12;97.32
42335;BME280;27986;42.700;24.178;2023-01-29T05:34:54;93837.28;;;-0.55;99.21
42335;BME280;27986;42.700;24.178;2023-01-29T05:37:20;93902.91;;;-0.34;99.62
42335;BME280;27986;42.700;24.178;2023-01-29T05:39:45;93870.97;;;-0.07;100.00
42335;BME280;27986;42.700;24.178;2023-01-29T05:42:11;93887.44;;;-0.04;98.93
42335;BME280;27986;42.700;24.178;2023-01-29T05:44:36;93909.50;;;0.09;97.00
42335;BME280;27986;42.700;24.178;2023-01-29T05:47:02;93861.97;;;-0.30;98.37
42335;BME280;27986;42.700;24.178;2023-01-29T05:49:27;93888.84;;;0.01;100.00
42335;BME280;27986;42.700;24.178;2023-01-29T05:51:53;93866.50;;;-0.14;100.00
42335;BME280;27986;42.700;24.178;2023-01-29T05:54:18;93922.53;;;-0.10;100.00
42335;BME280;27986;42.700;24.178;2023-01-29T05:56:44;93886.31;;;-0.24;100.00
42335;BME280;27986;42.700;24.178;2023-01-29T05:59:10;93873.38;;;-0.28;100.00
42335;BME280;27986;42.700;24.178;2023-01-29T06:01:35;93919.38;;;0.10;100.00
42335;BME280;27986;42.700;24.178;2023-01-29T06:04:01;93922.13;;;0.10;100.00
42335;BME280;27986;42.700;24.178;2023-01-29T06:06:27;93872.19;;;-0.58;100.00
42335;BME280;27986;42.700;24.178;2023-01-29T06:08:52;93933.59;;;-0.10;100.00
42335;BME280;27986;42.700;24.178;2023-01-29T06:11:18;93944.28;;;-0.39;100.00
42335;BME280;27986;42.700;24.178;2023-01-29T06:13:44;93926.59;;;-0.42;100.00
42335;BME280;27986;42.700;24.178;2023-01-29T06:16:11;93942.47;;;-0.33;100.00
42335;BME280;27986;42.700;24.178;2023-01-29T06:18:37;93900.69;;;-0.79;100.00
42335;BME280;27986;42.700;24.178;2023-01-29T06:21:04;93933.63;;;-0.50;100.00
42335;BME280;27986;42.700;24.178;2023-01-29T06:23:30;93886.72;;;-0.75;100.00
42335;BME280;27986;42.700;24.178;2023-01-29T06:26:08;93935.38;;;-0.34;100.00
42335;BME280;27986;42.700;24.178;2023-01-29T06:28:34;93925.94;;;-0.46;100.00
42335;BME280;27986;42.700;24.178;2023-01-29T06:31:04;93960.53;;;-0.19;100.00
42335;BME280;27986;42.700;24.178;2023-01-29T06:33:30;93890.44;;;-0.69;100.00
42335;BME280;27986;42.700;24.178;2023-01-29T06:36:01;93923.44;;;-0.53;100.00
42335;BME280;27986;42.700;24.178;2023-01-29T06:38:27;93934.41;;;-0.71;100.00
42335;BME280;27986;42.700;24.178;2023-01-29T06:40:53;93955.47;;;-0.74;100.00
42335;BME280;27986;42.700;24.178;2023-01-29T06:43:20;93941.59;;;-0.83;100.00
42335;BME280;27986;42.700;24.178;2023-01-29T06:45:54;93948.44;;;-0.35;100.00
42335;BME280;27986;42.700;24.178;2023-01-29T06:48:20;93921.91;;;-1.07;100.00
42335;BME280;27986;42.700;24.178;2023-01-29T06:50:46;93941.59;;;-0.83;100.00
42335;BME280;27986;42.700;24.178;2023-01-29T06:53:14;93940.94;;;-0.87;100.00
42335;BME280;27986;42.700;24.178;2023-01-29T06:55:40;93930.31;;;-0.89;100.00
42335;BME280;27986;42.700;24.178;2023-01-29T06:58:07;93988.41;;;-0.45;100.00
42335;BME280;27986;42.700;24.178;2023-01-29T07:00:33;93991.78;;;-0.50;100.00
42335;BME280;27986;42.700;24.178;2023-01-29T07:02:59;93948.56;;;-0.47;100.00
42335;BME280;27986;42.700;24.178;2023-01-29T07:05:24;93996.72;;;-0.14;100.00
42335;BME280;27986;42.700;24.178;2023-01-29T07:07:50;93899.69;;;-0.94;100.00
42335;BME280;27986;42.700;24.178;2023-01-29T07:10:16;93936.72;;;-0.70;100.00
42335;BME280;27986;42.700;24.178;2023-01-29T07:12:41;93951.44;;;-1.04;100.00
42335;BME280;27986;42.700;24.178;2023-01-29T07:15:07;93964.19;;;-1.06;100.00
42335;BME280;27986;42.700;24.178;2023-01-29T07:17:32;93987.78;;;-0.93;100.00
42335;BME280;27986;42.700;24.178;2023-01-29T07:19:58;94007.38;;;-0.65;100.00
42335;BME280;27986;42.700;24.178;2023-01-29T07:22:23;93965.06;;;-0.88;100.00
42335;BME280;27986;42.700;24.178;2023-01-29T07:24:49;93979.75;;;-1.00;100.00
42335;BME280;27986;42.700;24.178;2023-01-29T07:27:14;93991.22;;;-0.89;100.00
42335;BME280;27986;42.700;24.178;2023-01-29T07:29:40;93956.19;;;-1.04;100.00
42335;BME280;27986;42.700;24.178;2023-01-29T07:32:05;93952.50;;;-1.01;100.00
42335;BME280;27986;42.700;24.178;2023-01-29T07:34:32;93973.94;;;-0.71;100.00
42335;BME280;27986;42.700;24.178;2023-01-29T07:36:58;94016.63;;;-0.37;100.00
42335;BME280;27986;42.700;24.178;2023-01-29T07:39:23;93974.91;;;-0.87;100.00
42335;BME280;27986;42.700;24.178;2023-01-29T07:41:49;93959.41;;;-1.06;100.00
42335;BME280;27986;42.700;24.178;2023-01-29T07:44:14;93944.53;;;-1.21;100.00
42335;BME280;27986;42.700;24.178;2023-01-29T07:46:40;93977.13;;;-0.81;100.00
42335;BME280;27986;42.700;24.178;2023-01-29T07:49:05;93974.09;;;-0.74;100.00
42335;BME280;27986;42.700;24.178;2023-01-29T07:51:30;93975.44;;;-0.79;100.00
42335;BME280;27986;42.700;24.178;2023-01-29T07:53:56;93950.91;;;-0.90;100.00
42335;BME280;27986;42.700;24.178;2023-01-29T07:56:21;93959.44;;;-0.84;100.00
42335;BME280;27986;42.700;24.178;2023-01-29T07:58:47;93983.78;;;-0.48;100.00
42335;BME280;27986;42.700;24.178;2023-01-29T08:01:12;93936.38;;;-0.81;100.00
42335;BME280;27986;42.700;24.178;2023-01-29T08:03:38;94004.84;;;-0.50;100.00
42335;BME280;27986;42.700;24.178;2023-01-29T08:06:03;93979.84;;;-0.60;100.00
42335;BME280;27986;42.700;24.178;2023-01-29T08:08:29;93982.97;;;-0.79;100.00
42335;BME280;27986;42.700;24.178;2023-01-29T08:10:55;93993.38;;;-0.62;100.00
42335;BME280;27986;42.700;24.178;2023-01-29T08:13:20;93996.44;;;-0.38;100.00
42335;BME280;27986;42.700;24.178;2023-01-29T08:15:46;94007.63;;;-0.19;100.00
42335;BME280;27986;42.700;24.178;2023-01-29T08:18:12;93932.34;;;-0.58;100.00
42335;BME280;27986;42.700;24.178;2023-01-29T08:20:38;94017.59;;;0.00;100.00
42335;BME280;27986;42.700;24.178;2023-01-29T08:23:07;94050.50;;;0.29;100.00
42335;BME280;27986;42.700;24.178;2023-01-29T08:25:34;94049.06;;;0.15;100.00
42335;BME280;27986;42.700;24.178;2023-01-29T08:28:00;94051.81;;;0.15;100.00
42335;BME280;27986;42.700;24.178;2023-01-29T08:30:27;94029.97;;;-0.14;100.00
42335;BME280;27986;42.700;24.178;2023-01-29T08:32:53;94001.72;;;-0.31;100.00
42335;BME280;27986;42.700;24.178;2023-01-29T08:35:18;94008.19;;;-0.34;100.00
42335;BME280;27986;42.700;24.178;2023-01-29T08:37:51;93956.56;;;-0.71;100.00
42335;BME280;27986;42.700;24.178;2023-01-29T08:40:17;94039.25;;;-0.08;100.00
42335;BME280;27986;42.700;24.178;2023-01-29T08:42:42;93985.38;;;-0.60;100.00
42335;BME280;27986;42.700;24.178;2023-01-29T08:45:08;94022.16;;;-0.37;100.00
42335;BME280;27986;42.700;24.178;2023-01-29T08:47:33;94027.13;;;-0.54;100.00
42335;BME280;27986;42.700;24.178;2023-01-29T08:49:59;94051.91;;;-0.29;100.00
42335;BME280;27986;42.700;24.178;2023-01-29T08:52:24;93997.25;;;-0.59;100.00
42335;BME280;27986;42.700;24.178;2023-01-29T08:54:50;94001.75;;;-0.52;100.00
42335;BME280;27986;42.700;24.178;2023-01-29T08:57:15;93985.03;;;-0.71;100.00
42335;BME280;27986;42.700;24.178;2023-01-29T08:59:40;94053.38;;;-0.15;100.00
42335;BME280;27986;42.700;24.178;2023-01-29T09:02:07;94006.50;;;-0.53;100.00
42335;BME280;27986;42.700;24.178;2023-01-29T09:04:33;94001.53;;;-0.67;100.00
42335;BME280;27986;42.700;24.178;2023-01-29T09:06:58;94018.97;;;-0.58;100.00
42335;BME280;27986;42.700;24.178;2023-01-29T09:09:24;94027.78;;;-0.50;100.00
42335;BME280;27986;42.700;24.178;2023-01-29T09:11:49;94047.84;;;-0.37;100.00
42335;BME280;27986;42.700;24.178;2023-01-29T09:14:15;94072.31;;;-0.13;100.00
42335;BME280;27986;42.700;24.178;2023-01-29T09:16:40;94000.97;;;-0.53;100.00
42335;BME280;27986;42.700;24.178;2023-01-29T09:19:06;94068.97;;;-0.08;100.00
42335;BME280;27986;42.700;24.178;2023-01-29T09:21:32;94082.53;;;-0.01;100.00
42335;BME280;27986;42.700;24.178;2023-01-29T09:23:57;93996.97;;;-0.52;100.00
42335;BME280;27986;42.700;24.178;2023-01-29T09:26:23;94028.41;;;-0.46;100.00
42335;BME280;27986;42.700;24.178;2023-01-29T09:28:48;93999.53;;;-0.67;100.00
42335;BME280;27986;42.700;24.178;2023-01-29T09:31:14;94045.69;;;-0.42;100.00
42335;BME280;27986;42.700;24.178;2023-01-29T09:33:39;94008.19;;;-0.55;100.00
42335;BME280;27986;42.700;24.178;2023-01-29T09:36:05;94001.41;;;-0.33;100.00
42335;BME280;27986;42.700;24.178;2023-01-29T09:38:31;94007.84;;;-0.36;100.00
42335;BME280;27986;42.700;24.178;2023-01-29T09:43:39;93969.19;;;-0.70;100.00
42335;BME280;27986;42.700;24.178;2023-01-29T09:46:16;93992.97;;;-0.51;100.00
42335;BME280;27986;42.700;24.178;2023-01-29T09:48:45;94062.59;;;0.13;100.00
42335;BME280;27986;42.700;24.178;2023-01-29T09:51:19;93998.19;;;-0.31;100.00
42335;BME280;27986;42.700;24.178;2023-01-29T09:54:23;94071.88;;;0.19;100.00
42335;BME280;27986;42.700;24.178;2023-01-29T09:56:54;94037.03;;;0.09;100.00
42335;BME280;27986;42.700;24.178;2023-01-29T09:59:22;94026.44;;;-0.14;100.00
42335;BME280;27986;42.700;24.178;2023-01-29T10:23:25;94032.63;;;0.89;91.76
42335;BME280;27986;42.700;24.178;2023-01-29T10:25:52;93995.88;;;0.66;88.75
42335;BME280;27986;42.700;24.178;2023-01-29T10:28:19;94040.94;;;0.98;89.96
42335;BME280;27986;42.700;24.178;2023-01-29T10:30:49;93999.31;;;0.79;91.15
42335;BME280;27986;42.700;24.178;2023-01-29T10:33:21;94036.34;;;1.13;90.64
42335;BME280;27986;42.700;24.178;2023-01-29T10:35:55;94006.41;;;0.90;88.40
42335;BME280;27986;42.700;24.178;2023-01-29T10:38:38;93997.00;;;0.78;91.22
42335;BME280;27986;42.700;24.178;2023-01-29T10:44:00;94041.28;;;1.27;87.99
42335;BME280;27986;42.700;24.178;2023-01-29T11:00:08;94005.94;;;1.46;85.54
42335;BME280;27986;42.700;24.178;2023-01-29T11:02:43;93958.91;;;0.88;85.97
42335;BME280;27986;42.700;24.178;2023-01-29T11:05:28;94001.47;;;1.12;86.50
42335;BME280;27986;42.700;24.178;2023-01-29T11:08:23;94018.44;;;0.96;89.05
42335;BME280;27986;42.700;24.178;2023-01-29T11:11:06;94015.06;;;1.10;87.00
42335;BME280;27986;42.700;24.178;2023-01-29T11:13:36;93983.53;;;0.67;87.80
42335;BME280;27986;42.700;24.178;2023-01-29T11:16:04;93987.91;;;0.77;88.86
42335;BME280;27986;42.700;24.178;2023-01-29T11:18:50;94018.75;;;0.98;86.67
42335;BME280;27986;42.700;24.178;2023-01-29T11:21:16;94021.81;;;1.00;87.25
42335;BME280;27986;42.700;24.178;2023-01-29T11:23:41;93966.59;;;0.74;87.47
42335;BME280;27986;42.700;24.178;2023-01-29T11:26:09;93951.34;;;0.88;87.68
42335;BME280;27986;42.700;24.178;2023-01-29T11:28:43;94007.16;;;1.18;84.35
42335;BME280;27986;42.700;24.178;2023-01-29T11:31:21;93965.84;;;0.92;84.84
42335;BME280;27986;42.700;24.178;2023-01-29T11:33:49;93953.97;;;0.73;84.50
42335;BME280;27986;42.700;24.178;2023-01-29T11:36:28;93976.50;;;1.03;85.90
42335;BME280;27986;42.700;24.178;2023-01-29T11:39:19;93999.63;;;1.18;85.14
42335;BME280;27986;42.700;24.178;2023-01-29T11:42:03;93944.25;;;0.87;84.96
42335;BME280;27986;42.700;24.178;2023-01-29T11:44:39;93940.56;;;0.90;84.82
42335;BME280;27986;42.700;24.178;2023-01-29T11:47:25;93966.44;;;1.33;84.92
42335;BME280;27986;42.700;24.178;2023-01-29T11:49:53;93913.88;;;1.11;83.48
42335;BME280;27986;42.700;24.178;2023-01-29T11:52:25;93903.66;;;1.17;84.52
42335;BME280;27986;42.700;24.178;2023-01-29T11:55:02;93969.16;;;1.69;85.53
42335;BME280;27986;42.700;24.178;2023-01-29T11:57:33;93976.88;;;1.56;87.45
42335;BME280;27986;42.700;24.178;2023-01-29T12:02:48;93924.41;;;1.49;83.26
42335;BME280;27986;42.700;24.178;2023-01-29T12:05:20;93981.00;;;1.79;82.82
42335;BME280;27986;42.700;24.178;2023-01-29T12:07:49;93919.88;;;1.19;82.80
42335;BME280;27986;42.700;24.178;2023-01-29T12:10:37;93968.22;;;1.63;84.87
42335;BME280;27986;42.700;24.178;2023-01-29T12:13:26;93972.69;;;1.70;84.48
42335;BME280;27986;42.700;24.178;2023-01-29T12:19:18;93950.78;;;1.63;83.55
42335;BME280;27986;42.700;24.178;2023-01-29T12:22:13;93970.19;;;1.81;84.30
42335;BME280;27986;42.700;24.178;2023-01-29T12:32:44;93928.91;;;1.47;80.45
42335;BME280;27986;42.700;24.178;2023-01-29T12:35:24;93974.47;;;1.91;82.18
42335;BME280;27986;42.700;24.178;2023-01-29T12:37:57;93958.53;;;1.40;84.19
42335;BME280;27986;42.700;24.178;2023-01-29T12:40:32;93978.88;;;1.65;85.41
42335;BME280;27986;42.700;24.178;2023-01-29T12:43:34;93943.69;;;1.62;85.42
42335;BME280;27986;42.700;24.178;2023-01-29T12:45:57;93964.91;;;1.83;83.91
42335;BME280;27986;42.700;24.178;2023-01-29T12:48:31;93978.78;;;1.92;83.46
42335;BME280;27986;42.700;24.178;2023-01-29T12:51:07;93876.19;;;1.28;83.74
42335;BME280;27986;42.700;24.178;2023-01-29T12:53:38;93964.84;;;2.02;83.57
42335;BME280;27986;42.700;24.178;2023-01-29T12:56:12;93970.44;;;1.92;83.47
42335;BME280;27986;42.700;24.178;2023-01-29T12:58:50;93966.75;;;1.95;85.34
42335;BME280;27986;42.700;24.178;2023-01-29T13:03:52;93968.63;;;1.89;82.79
42335;BME280;27986;42.700;24.178;2023-01-29T13:06:27;93955.88;;;1.64;81.68
42335;BME280;27986;42.700;24.178;2023-01-29T13:08:58;93911.63;;;1.42;82.03
42335;BME280;27986;42.700;24.178;2023-01-29T13:11:39;93965.53;;;1.87;82.22
42335;BME280;27986;42.700;24.178;2023-01-29T13:14:12;93924.03;;;2.08;82.40
42335;BME280;27986;42.700;24.178;2023-01-29T13:16:44;93962.44;;;2.51;80.88
42335;BME280;27986;42.700;24.178;2023-01-29T13:19:21;93968.56;;;2.65;79.39
42335;BME280;27986;42.700;24.178;2023-01-29T13:21:50;93936.59;;;2.36;77.04
42335;BME280;27986;42.700;24.178;2023-01-29T13:24:20;93970.16;;;2.57;76.27
42335;BME280;27986;42.700;24.178;2023-01-29T13:26:48;93948.09;;;2.20;77.19
42335;BME280;27986;42.700;24.178;2023-01-29T13:29:32;93935.75;;;2.21;78.71
42335;BME280;27986;42.700;24.178;2023-01-29T13:32:00;93927.72;;;1.81;78.08
42335;BME280;27986;42.700;24.178;2023-01-29T13:34:43;93952.69;;;1.90;80.33
42335;BME280;27986;42.700;24.178;2023-01-29T13:37:16;93923.88;;;1.78;81.38
42335;BME280;27986;42.700;24.178;2023-01-29T13:39:51;93895.31;;;1.17;81.92
42335;BME280;27986;42.700;24.178;2023-01-29T13:42:24;93974.84;;;1.75;83.73
42335;BME280;27986;42.700;24.178;2023-01-29T13:44:55;93927.91;;;1.68;83.19
42335;BME280;27986;42.700;24.178;2023-01-29T13:47:30;93959.75;;;2.00;83.88
42335;BME280;27986;42.700;24.178;2023-01-29T13:55:06;93945.00;;;3.14;79.85
42335;BME280;27986;42.700;24.178;2023-01-29T14:00:05;93964.34;;;2.93;76.41
42335;BME280;27986;42.700;24.178;2023-01-29T14:02:31;93965.72;;;2.17;82.17
42335;BME280;27986;42.700;24.178;2023-01-29T14:10:41;93947.41;;;1.50;86.71
42335;BME280;27986;42.700;24.178;2023-01-29T14:15:37;93937.31;;;1.10;93.45
42335;BME280;27986;42.700;24.178;2023-01-29T14:18:05;93982.00;;;1.49;91.86
42335;BME280;27986;42.700;24.178;2023-01-29T14:26:40;93954.59;;;0.87;98.06
42335;BME280;27986;42.700;24.178;2023-01-29T14:29:17;93985.91;;;0.87;99.32
42335;BME280;27986;42.700;24.178;2023-01-29T14:32:37;93931.16;;;0.51;99.85
42335;BME280;27986;42.700;24.178;2023-01-29T14:39:47;93982.31;;;0.59;100.00
42335;BME280;27986;42.700;24.178;2023-01-29T14:42:25;93952.63;;;0.10;100.00
42335;BME280;27986;42.700;24.178;2023-01-29T14:44:59;93987.88;;;0.68;100.00
42335;BME280;27986;42.700;24.178;2023-01-29T14:50:01;93980.75;;;0.58;99.46
42335;BME280;27986;42.700;24.178;2023-01-29T14:52:39;93968.59;;;0.65;99.01
42335;BME280;27986;42.700;24.178;2023-01-29T14:55:17;93971.38;;;0.83;95.78
42335;BME280;27986;42.700;24.178;2023-01-29T14:57:44;93963.06;;;0.65;96.57
42335;BME280;27986;42.700;24.178;2023-01-29T15:00:33;93980.03;;;0.94;95.22
42335;BME280;27986;42.700;24.178;2023-01-29T15:03:01;93945.97;;;0.94;90.81
42335;BME280;27986;42.700;24.178;2023-01-29T15:05:35;93951.06;;;0.77;91.54
42335;BME280;27986;42.700;24.178;2023-01-29T15:08:37;93961.22;;;0.71;94.31
42335;BME280;27986;42.700;24.178;2023-01-29T15:11:06;93973.56;;;0.70;95.78
42335;BME280;27986;42.700;24.178;2023-01-29T15:13:55;93969.38;;;0.65;97.25
42335;BME280;27986;42.700;24.178;2023-01-29T15:16:30;93988.97;;;0.89;96.44